< < Back
Terminal Aerodrome Forecast


Current Version              Previous Versions:   1  2  3  4  5  6  7  8  9  

Terminal Aerodrome Forecast

300
FTUS44 KBMX 261728
TAFBHM
TAF
KBHM 261728Z 2618/2718 32011KT P6SM SCT250
     FM270300 03005KT P6SM SCT250=

Latest METAR

142
SAUS70 KWBC 261900 RRD
MTRBHM
METAR KBHM 261853Z 28013G19KT 10SM FEW040 27/16 A2974 RMK AO2 SLP064
T02720161


USA.gov is the U.S. government's official web portal to all federal, state and local government web resources and services.